Presidente Juscelino, Brazil
Current Conditions -  °F | °C
As of 1:00 PM on Monday 24 Nov 2014 (Local Time) from SBSL Reporting Station
Scattered Clouds Scattered Clouds  
Wind Chill: 90°   Ceiling: Unl
Heat Index: 92°   Visibility: 6mi
Dew Point: 66°   Wind: 24mph
Humidity: 46%   Direction: 30°NNE
Pressure: 29.88"   Gusts: NA
Location:  2.93°S, 44.06°W
Report Text: SBSL 241600Z 03021KT 9999 SCT030 32/19 Q1012
Loading
Personal Weather Stations






























Interactive Weather Map New forecast layout! Learn more

10-Day Weather Forecast

Advertisements
Track Severe Weather on mobile